sensor_id;sensor_type;location;lat;lon;timestamp;pressure;altitude;pressure_sealevel;temperature;humidity
51067;BME280;37112;45.892;-123.962;2023-04-21T00:02:01;102142.72;;;9.10;84.97
51067;BME280;37112;45.892;-123.962;2023-04-21T00:04:35;102144.26;;;9.07;85.32
51067;BME280;37112;45.892;-123.962;2023-04-21T00:07:11;102154.28;;;9.05;84.98
51067;BME280;37112;45.892;-123.962;2023-04-21T00:09:46;102153.30;;;9.02;86.10
51067;BME280;37112;45.892;-123.962;2023-04-21T00:12:12;102154.34;;;8.99;85.88
51067;BME280;37112;45.892;-123.962;2023-04-21T00:14:47;102157.42;;;8.97;86.39
51067;BME280;37112;45.892;-123.962;2023-04-21T00:17:22;102151.30;;;8.94;86.70
51067;BME280;37112;45.892;-123.962;2023-04-21T00:19:57;102151.05;;;8.91;86.57
51067;BME280;37112;45.892;-123.962;2023-04-21T00:22:32;102159.29;;;8.89;87.18
51067;BME280;37112;45.892;-123.962;2023-04-21T00:25:06;102156.52;;;8.88;87.57
51067;BME280;37112;45.892;-123.962;2023-04-21T00:28:11;102148.75;;;8.87;87.81
51067;BME280;37112;45.892;-123.962;2023-04-21T00:30:45;102145.38;;;8.82;88.13
51067;BME280;37112;45.892;-123.962;2023-04-21T00:33:19;102153.07;;;8.81;88.32
51067;BME280;37112;45.892;-123.962;2023-04-21T00:35:53;102163.92;;;8.79;88.68
51067;BME280;37112;45.892;-123.962;2023-04-21T00:38:29;102162.90;;;8.78;88.72
51067;BME280;37112;45.892;-123.962;2023-04-21T00:41:03;102166.98;;;8.78;88.70
51067;BME280;37112;45.892;-123.962;2023-04-21T00:43:35;102170.48;;;8.79;89.10
51067;BME280;37112;45.892;-123.962;2023-04-21T00:46:08;102179.59;;;8.77;89.23
51067;BME280;37112;45.892;-123.962;2023-04-21T00:48:42;102182.31;;;8.75;89.62
51067;BME280;37112;45.892;-123.962;2023-04-21T00:51:17;102177.90;;;8.75;89.44
51067;BME280;37112;45.892;-123.962;2023-04-21T00:53:52;102172.98;;;8.74;89.84
51067;BME280;37112;45.892;-123.962;2023-04-21T00:56:27;102168.93;;;8.73;90.38
51067;BME280;37112;45.892;-123.962;2023-04-21T00:59:03;102153.40;;;8.72;90.27
51067;BME280;37112;45.892;-123.962;2023-04-21T01:01:37;102133.77;;;8.70;90.60
51067;BME280;37112;45.892;-123.962;2023-04-21T01:04:11;102114.88;;;8.70;91.18
51067;BME280;37112;45.892;-123.962;2023-04-21T01:06:46;102126.21;;;8.69;92.05
51067;BME280;37112;45.892;-123.962;2023-04-21T01:09:21;102116.31;;;8.69;92.07
51067;BME280;37112;45.892;-123.962;2023-04-21T01:12:11;102119.66;;;8.70;91.95
51067;BME280;37112;45.892;-123.962;2023-04-21T01:14:45;102115.02;;;8.70;92.35
51067;BME280;37112;45.892;-123.962;2023-04-21T01:17:20;102105.29;;;8.70;93.04
51067;BME280;37112;45.892;-123.962;2023-04-21T01:20:19;102109.32;;;8.71;92.67
51067;BME280;37112;45.892;-123.962;2023-04-21T01:23:31;102086.80;;;8.73;93.14
51067;BME280;37112;45.892;-123.962;2023-04-21T01:26:06;102080.85;;;8.75;93.53
51067;BME280;37112;45.892;-123.962;2023-04-21T01:28:39;102071.91;;;8.77;94.57
51067;BME280;37112;45.892;-123.962;2023-04-21T01:31:17;102072.03;;;8.78;94.87
51067;BME280;37112;45.892;-123.962;2023-04-21T01:33:53;102102.80;;;8.80;94.78
51067;BME280;37112;45.892;-123.962;2023-04-21T01:36:26;102104.72;;;8.81;95.34
51067;BME280;37112;45.892;-123.962;2023-04-21T01:39:00;102115.14;;;8.82;94.77
51067;BME280;37112;45.892;-123.962;2023-04-21T01:41:39;102118.08;;;8.83;94.90
51067;BME280;37112;45.892;-123.962;2023-04-21T01:44:36;102126.00;;;8.84;95.04
51067;BME280;37112;45.892;-123.962;2023-04-21T01:47:24;102130.25;;;8.84;95.90
51067;BME280;37112;45.892;-123.962;2023-04-21T01:52:54;102129.42;;;8.88;95.93
51067;BME280;37112;45.892;-123.962;2023-04-21T01:55:22;102126.89;;;8.89;96.86
51067;BME280;37112;45.892;-123.962;2023-04-21T01:57:56;102123.48;;;8.90;97.26
51067;BME280;37112;45.892;-123.962;2023-04-21T02:00:30;102123.50;;;8.89;97.63
51067;BME280;37112;45.892;-123.962;2023-04-21T02:03:26;102113.61;;;8.89;97.16
51067;BME280;37112;45.892;-123.962;2023-04-21T02:08:25;102095.23;;;8.88;98.62
51067;BME280;37112;45.892;-123.962;2023-04-21T02:11:05;102085.49;;;8.88;98.26
51067;BME280;37112;45.892;-123.962;2023-04-21T02:13:39;102084.93;;;8.89;98.29
51067;BME280;37112;45.892;-123.962;2023-04-21T02:16:24;102101.77;;;8.88;98.50
51067;BME280;37112;45.892;-123.962;2023-04-21T02:18:59;102101.73;;;8.89;98.56
51067;BME280;37112;45.892;-123.962;2023-04-21T02:21:37;102103.59;;;8.92;98.84
51067;BME280;37112;45.892;-123.962;2023-04-21T02:27:11;102112.48;;;8.94;99.53
51067;BME280;37112;45.892;-123.962;2023-04-21T02:30:10;102116.20;;;8.95;100.00
51067;BME280;37112;45.892;-123.962;2023-04-21T02:32:44;102119.21;;;8.96;99.82
51067;BME280;37112;45.892;-123.962;2023-04-21T02:35:35;102127.33;;;8.96;99.98
51067;BME280;37112;45.892;-123.962;2023-04-21T02:38:16;102129.61;;;8.97;100.00
51067;BME280;37112;45.892;-123.962;2023-04-21T02:40:56;102129.91;;;8.98;100.00
51067;BME280;37112;45.892;-123.962;2023-04-21T02:46:21;102145.98;;;9.00;100.00
51067;BME280;37112;45.892;-123.962;2023-04-21T02:48:56;102147.16;;;9.01;100.00
51067;BME280;37112;45.892;-123.962;2023-04-21T02:51:31;102140.02;;;9.02;100.00
51067;BME280;37112;45.892;-123.962;2023-04-21T02:54:05;102159.34;;;9.02;100.00
51067;BME280;37112;45.892;-123.962;2023-04-21T02:56:31;102173.95;;;8.95;99.82
51067;BME280;37112;45.892;-123.962;2023-04-21T02:58:46;102178.39;;;8.85;99.41
51067;BME280;37112;45.892;-123.962;2023-04-21T03:01:11;102181.78;;;8.75;98.93
51067;BME280;37112;45.892;-123.962;2023-04-21T03:03:45;102190.04;;;8.68;99.47
51067;BME280;37112;45.892;-123.962;2023-04-21T03:06:03;102196.43;;;8.61;99.20
51067;BME280;37112;45.892;-123.962;2023-04-21T03:08:37;102202.63;;;8.57;99.53
51067;BME280;37112;45.892;-123.962;2023-04-21T03:11:23;102211.56;;;8.50;99.43
51067;BME280;37112;45.892;-123.962;2023-04-21T03:13:45;102220.63;;;8.44;99.90
51067;BME280;37112;45.892;-123.962;2023-04-21T03:16:31;102221.05;;;8.36;99.97
51067;BME280;37112;45.892;-123.962;2023-04-21T03:18:56;102230.69;;;8.33;99.94
51067;BME280;37112;45.892;-123.962;2023-04-21T03:21:52;102229.63;;;8.32;100.00
51067;BME280;37112;45.892;-123.962;2023-04-21T03:24:26;102227.00;;;8.32;99.90
51067;BME280;37112;45.892;-123.962;2023-04-21T03:27:04;102224.71;;;8.31;99.64
51067;BME280;37112;45.892;-123.962;2023-04-21T03:29:37;102220.79;;;8.32;99.62
51067;BME280;37112;45.892;-123.962;2023-04-21T03:32:15;102219.56;;;8.32;99.45
51067;BME280;37112;45.892;-123.962;2023-04-21T03:35:05;102230.34;;;8.33;99.55
51067;BME280;37112;45.892;-123.962;2023-04-21T03:37:39;102246.58;;;8.34;99.69
51067;BME280;37112;45.892;-123.962;2023-04-21T03:40:06;102253.23;;;8.37;99.77
51067;BME280;37112;45.892;-123.962;2023-04-21T03:42:20;102249.25;;;8.39;99.74
51067;BME280;37112;45.892;-123.962;2023-04-21T03:44:40;102242.63;;;8.42;99.76
51067;BME280;37112;45.892;-123.962;2023-04-21T03:47:13;102253.70;;;8.44;99.94
51067;BME280;37112;45.892;-123.962;2023-04-21T03:49:52;102259.84;;;8.45;99.94
51067;BME280;37112;45.892;-123.962;2023-04-21T03:52:42;102259.42;;;8.47;99.79
51067;BME280;37112;45.892;-123.962;2023-04-21T03:55:02;102268.78;;;8.49;99.78
51067;BME280;37112;45.892;-123.962;2023-04-21T03:57:28;102272.52;;;8.48;99.79
51067;BME280;37112;45.892;-123.962;2023-04-21T04:00:06;102274.98;;;8.49;99.64
51067;BME280;37112;45.892;-123.962;2023-04-21T04:02:20;102278.86;;;8.49;99.63
51067;BME280;37112;45.892;-123.962;2023-04-21T04:04:56;102285.38;;;8.50;99.52
51067;BME280;37112;45.892;-123.962;2023-04-21T04:08:12;102295.71;;;8.47;99.37
51067;BME280;37112;45.892;-123.962;2023-04-21T04:10:51;102306.02;;;8.46;99.01
51067;BME280;37112;45.892;-123.962;2023-04-21T04:13:27;102306.60;;;8.45;98.96
51067;BME280;37112;45.892;-123.962;2023-04-21T04:16:03;102311.37;;;8.45;99.03
51067;BME280;37112;45.892;-123.962;2023-04-21T04:18:37;102319.11;;;8.47;99.13
51067;BME280;37112;45.892;-123.962;2023-04-21T04:21:11;102325.56;;;8.50;99.52
51067;BME280;37112;45.892;-123.962;2023-04-21T04:23:45;102328.67;;;8.52;99.48
51067;BME280;37112;45.892;-123.962;2023-04-21T04:26:06;102333.40;;;8.53;99.38
51067;BME280;37112;45.892;-123.962;2023-04-21T04:28:43;102338.36;;;8.53;99.11
51067;BME280;37112;45.892;-123.962;2023-04-21T04:31:19;102338.00;;;8.53;99.11
51067;BME280;37112;45.892;-123.962;2023-04-21T04:33:47;102340.31;;;8.53;98.96
51067;BME280;37112;45.892;-123.962;2023-04-21T04:36:26;102336.23;;;8.53;98.97
51067;BME280;37112;45.892;-123.962;2023-04-21T04:39:05;102349.15;;;8.54;98.99
51067;BME280;37112;45.892;-123.962;2023-04-21T04:41:43;102357.64;;;8.54;98.96
51067;BME280;37112;45.892;-123.962;2023-04-21T04:44:06;102362.55;;;8.55;99.07
51067;BME280;37112;45.892;-123.962;2023-04-21T04:46:41;102365.70;;;8.56;99.07
51067;BME280;37112;45.892;-123.962;2023-04-21T04:49:16;102372.35;;;8.58;99.15
51067;BME280;37112;45.892;-123.962;2023-04-21T04:51:53;102374.30;;;8.59;98.97
51067;BME280;37112;45.892;-123.962;2023-04-21T04:54:27;102377.52;;;8.58;98.75
51067;BME280;37112;45.892;-123.962;2023-04-21T04:57:01;102374.02;;;8.57;98.76
51067;BME280;37112;45.892;-123.962;2023-04-21T04:59:35;102378.10;;;8.57;98.49
51067;BME280;37112;45.892;-123.962;2023-04-21T05:02:02;102384.48;;;8.56;98.20
51067;BME280;37112;45.892;-123.962;2023-04-21T05:04:26;102389.16;;;8.53;97.84
51067;BME280;37112;45.892;-123.962;2023-04-21T05:06:59;102397.58;;;8.51;97.40
51067;BME280;37112;45.892;-123.962;2023-04-21T05:09:33;102402.46;;;8.47;97.15
51067;BME280;37112;45.892;-123.962;2023-04-21T05:12:08;102404.81;;;8.46;97.07
51067;BME280;37112;45.892;-123.962;2023-04-21T05:14:41;102411.41;;;8.44;96.83
51067;BME280;37112;45.892;-123.962;2023-04-21T05:17:16;102410.92;;;8.43;96.65
51067;BME280;37112;45.892;-123.962;2023-04-21T05:19:50;102413.77;;;8.43;96.72
51067;BME280;37112;45.892;-123.962;2023-04-21T05:22:24;102419.77;;;8.43;96.59
51067;BME280;37112;45.892;-123.962;2023-04-21T05:25:02;102423.39;;;8.41;96.09
51067;BME280;37112;45.892;-123.962;2023-04-21T05:27:28;102425.74;;;8.39;96.07
51067;BME280;37112;45.892;-123.962;2023-04-21T05:30:02;102424.47;;;8.40;96.15
51067;BME280;37112;45.892;-123.962;2023-04-21T05:32:36;102434.05;;;8.39;95.90
51067;BME280;37112;45.892;-123.962;2023-04-21T05:35:21;102439.88;;;8.39;95.71
51067;BME280;37112;45.892;-123.962;2023-04-21T05:37:56;102441.30;;;8.39;95.92
51067;BME280;37112;45.892;-123.962;2023-04-21T05:40:30;102444.46;;;8.41;95.72
51067;BME280;37112;45.892;-123.962;2023-04-21T05:43:04;102451.18;;;8.41;95.82
51067;BME280;37112;45.892;-123.962;2023-04-21T05:45:40;102450.61;;;8.42;95.68
51067;BME280;37112;45.892;-123.962;2023-04-21T05:48:14;102450.07;;;8.43;95.57
51067;BME280;37112;45.892;-123.962;2023-04-21T05:50:48;102457.65;;;8.43;95.33
51067;BME280;37112;45.892;-123.962;2023-04-21T05:53:22;102459.46;;;8.42;95.09
51067;BME280;37112;45.892;-123.962;2023-04-21T05:55:55;102465.33;;;8.41;94.83
51067;BME280;37112;45.892;-123.962;2023-04-21T05:58:31;102466.59;;;8.41;94.47
51067;BME280;37112;45.892;-123.962;2023-04-21T06:01:07;102471.98;;;8.38;94.26
51067;BME280;37112;45.892;-123.962;2023-04-21T06:03:41;102478.53;;;8.37;94.04
51067;BME280;37112;45.892;-123.962;2023-04-21T06:06:08;102482.61;;;8.37;94.04
51067;BME280;37112;45.892;-123.962;2023-04-21T06:08:45;102489.70;;;8.37;94.01
51067;BME280;37112;45.892;-123.962;2023-04-21T06:11:18;102495.00;;;8.37;93.92
51067;BME280;37112;45.892;-123.962;2023-04-21T06:13:51;102504.39;;;8.37;93.71
51067;BME280;37112;45.892;-123.962;2023-04-21T06:16:35;102511.55;;;8.34;93.28
51067;BME280;37112;45.892;-123.962;2023-04-21T06:19:09;102517.05;;;8.33;93.51
51067;BME280;37112;45.892;-123.962;2023-04-21T06:21:44;102512.42;;;8.34;93.51
51067;BME280;37112;45.892;-123.962;2023-04-21T06:24:17;102515.61;;;8.35;93.64
51067;BME280;37112;45.892;-123.962;2023-04-21T06:26:55;102517.02;;;8.34;93.19
51067;BME280;37112;45.892;-123.962;2023-04-21T06:29:17;102520.42;;;8.32;92.98
51067;BME280;37112;45.892;-123.962;2023-04-21T06:31:51;102522.96;;;8.30;92.67
51067;BME280;37112;45.892;-123.962;2023-04-21T06:34:25;102523.38;;;8.29;92.68
51067;BME280;37112;45.892;-123.962;2023-04-21T06:36:59;102523.75;;;8.28;92.61
51067;BME280;37112;45.892;-123.962;2023-04-21T06:39:34;102523.24;;;8.27;92.62
51067;BME280;37112;45.892;-123.962;2023-04-21T06:42:07;102522.34;;;8.28;92.78
51067;BME280;37112;45.892;-123.962;2023-04-21T06:44:45;102519.59;;;8.25;92.14
51067;BME280;37112;45.892;-123.962;2023-04-21T06:47:19;102530.02;;;8.24;92.21
51067;BME280;37112;45.892;-123.962;2023-04-21T06:49:53;102527.96;;;8.23;91.98
51067;BME280;37112;45.892;-123.962;2023-04-21T06:52:28;102533.30;;;8.22;91.99
51067;BME280;37112;45.892;-123.962;2023-04-21T06:55:02;102536.80;;;8.23;92.08
51067;BME280;37112;45.892;-123.962;2023-04-21T06:57:35;102535.92;;;8.23;91.86
51067;BME280;37112;45.892;-123.962;2023-04-21T07:00:14;102535.97;;;8.21;91.78
51067;BME280;37112;45.892;-123.962;2023-04-21T07:02:50;102535.73;;;8.23;91.92
51067;BME280;37112;45.892;-123.962;2023-04-21T07:05:14;102535.54;;;8.24;91.94
51067;BME280;37112;45.892;-123.962;2023-04-21T07:07:49;102534.45;;;8.24;91.95
51067;BME280;37112;45.892;-123.962;2023-04-21T07:10:15;102539.21;;;8.25;91.84
51067;BME280;37112;45.892;-123.962;2023-04-21T07:12:51;102541.35;;;8.25;91.78
51067;BME280;37112;45.892;-123.962;2023-04-21T07:15:25;102534.60;;;8.26;91.76
51067;BME280;37112;45.892;-123.962;2023-04-21T07:18:01;102535.12;;;8.27;91.62
51067;BME280;37112;45.892;-123.962;2023-04-21T07:20:36;102536.16;;;8.27;91.63
51067;BME280;37112;45.892;-123.962;2023-04-21T07:23:11;102537.05;;;8.27;91.43
51067;BME280;37112;45.892;-123.962;2023-04-21T07:25:46;102531.04;;;8.27;91.56
51067;BME280;37112;45.892;-123.962;2023-04-21T07:28:23;102532.77;;;8.28;91.33
51067;BME280;37112;45.892;-123.962;2023-04-21T07:30:58;102536.14;;;8.28;91.35
51067;BME280;37112;45.892;-123.962;2023-04-21T07:33:33;102531.14;;;8.29;91.32
51067;BME280;37112;45.892;-123.962;2023-04-21T07:35:57;102532.02;;;8.29;91.32
51067;BME280;37112;45.892;-123.962;2023-04-21T07:38:31;102530.59;;;8.30;91.28
51067;BME280;37112;45.892;-123.962;2023-04-21T07:41:08;102534.10;;;8.31;91.19
51067;BME280;37112;45.892;-123.962;2023-04-21T07:43:42;102530.22;;;8.30;90.93
51067;BME280;37112;45.892;-123.962;2023-04-21T07:46:16;102531.83;;;8.30;90.81
51067;BME280;37112;45.892;-123.962;2023-04-21T07:48:52;102537.85;;;8.29;90.63
51067;BME280;37112;45.892;-123.962;2023-04-21T07:51:28;102545.46;;;8.30;90.63
51067;BME280;37112;45.892;-123.962;2023-04-21T07:53:53;102541.94;;;8.29;90.43
51067;BME280;37112;45.892;-123.962;2023-04-21T07:56:17;102544.75;;;8.30;90.42
51067;BME280;37112;45.892;-123.962;2023-04-21T07:58:57;102547.02;;;8.30;90.58
51067;BME280;37112;45.892;-123.962;2023-04-21T08:01:21;102551.59;;;8.32;90.45
51067;BME280;37112;45.892;-123.962;2023-04-21T08:03:55;102558.84;;;8.33;90.49
51067;BME280;37112;45.892;-123.962;2023-04-21T08:06:30;102563.43;;;8.33;90.62
51067;BME280;37112;45.892;-123.962;2023-04-21T08:08:55;102571.36;;;8.34;90.58
51067;BME280;37112;45.892;-123.962;2023-04-21T08:11:29;102577.55;;;8.34;90.54
51067;BME280;37112;45.892;-123.962;2023-04-21T08:14:04;102580.91;;;8.35;90.53
51067;BME280;37112;45.892;-123.962;2023-04-21T08:16:41;102582.50;;;8.35;90.42
51067;BME280;37112;45.892;-123.962;2023-04-21T08:19:16;102587.99;;;8.35;90.46
51067;BME280;37112;45.892;-123.962;2023-04-21T08:21:50;102590.47;;;8.35;90.35
51067;BME280;37112;45.892;-123.962;2023-04-21T08:24:25;102591.00;;;8.35;90.50
51067;BME280;37112;45.892;-123.962;2023-04-21T08:27:00;102591.52;;;8.36;90.41
51067;BME280;37112;45.892;-123.962;2023-04-21T08:29:36;102587.63;;;8.36;90.36
51067;BME280;37112;45.892;-123.962;2023-04-21T08:32:10;102592.38;;;8.37;90.42
51067;BME280;37112;45.892;-123.962;2023-04-21T08:34:43;102592.70;;;8.37;90.43
51067;BME280;37112;45.892;-123.962;2023-04-21T08:37:07;102597.43;;;8.39;90.50
51067;BME280;37112;45.892;-123.962;2023-04-21T08:39:42;102599.70;;;8.40;90.46
51067;BME280;37112;45.892;-123.962;2023-04-21T08:42:01;102603.95;;;8.40;90.49
51067;BME280;37112;45.892;-123.962;2023-04-21T08:44:24;102604.14;;;8.40;90.38
51067;BME280;37112;45.892;-123.962;2023-04-21T08:47:01;102611.92;;;8.40;90.30
51067;BME280;37112;45.892;-123.962;2023-04-21T08:49:39;102615.48;;;8.39;90.20
51067;BME280;37112;45.892;-123.962;2023-04-21T08:52:16;102622.23;;;8.39;90.06
51067;BME280;37112;45.892;-123.962;2023-04-21T08:54:51;102629.73;;;8.36;89.81
51067;BME280;37112;45.892;-123.962;2023-04-21T08:57:25;102633.13;;;8.35;89.74
51067;BME280;37112;45.892;-123.962;2023-04-21T08:59:50;102636.13;;;8.36;89.63
51067;BME280;37112;45.892;-123.962;2023-04-21T09:02:24;102637.02;;;8.35;89.72
51067;BME280;37112;45.892;-123.962;2023-04-21T09:04:48;102639.44;;;8.37;89.89
51067;BME280;37112;45.892;-123.962;2023-04-21T09:07:33;102635.16;;;8.38;89.74
51067;BME280;37112;45.892;-123.962;2023-04-21T09:10:10;102642.25;;;8.38;89.50
51067;BME280;37112;45.892;-123.962;2023-04-21T09:12:53;102644.55;;;8.38;89.53
51067;BME280;37112;45.892;-123.962;2023-04-21T09:15:27;102643.27;;;8.39;89.72
51067;BME280;37112;45.892;-123.962;2023-04-21T09:17:56;102638.13;;;8.41;89.67
51067;BME280;37112;45.892;-123.962;2023-04-21T09:20:31;102639.17;;;8.41;89.46
51067;BME280;37112;45.892;-123.962;2023-04-21T09:23:09;102644.66;;;8.41;89.51
51067;BME280;37112;45.892;-123.962;2023-04-21T09:25:45;102644.31;;;8.41;89.45
51067;BME280;37112;45.892;-123.962;2023-04-21T09:28:12;102653.35;;;8.41;89.45
51067;BME280;37112;45.892;-123.962;2023-04-21T09:30:48;102655.98;;;8.42;89.32
51067;BME280;37112;45.892;-123.962;2023-04-21T09:33:28;102655.03;;;8.43;89.46
51067;BME280;37112;45.892;-123.962;2023-04-21T09:36:27;102660.67;;;8.44;89.37
51067;BME280;37112;45.892;-123.962;2023-04-21T09:39:02;102663.83;;;8.45;89.38
51067;BME280;37112;45.892;-123.962;2023-04-21T09:41:40;102665.58;;;8.46;89.32
51067;BME280;37112;45.892;-123.962;2023-04-21T09:44:17;102668.02;;;8.47;89.58
51067;BME280;37112;45.892;-123.962;2023-04-21T09:46:57;102669.24;;;8.48;89.62
51067;BME280;37112;45.892;-123.962;2023-04-21T09:49:24;102675.97;;;8.48;89.56
51067;BME280;37112;45.892;-123.962;2023-04-21T09:52:03;102676.71;;;8.46;89.46
51067;BME280;37112;45.892;-123.962;2023-04-21T09:54:51;102686.00;;;8.44;89.20
51067;BME280;37112;45.892;-123.962;2023-04-21T09:57:26;102685.13;;;8.43;89.16
51067;BME280;37112;45.892;-123.962;2023-04-21T10:00:07;102685.54;;;8.42;89.13
51067;BME280;37112;45.892;-123.962;2023-04-21T10:02:47;102679.37;;;8.40;88.97
51067;BME280;37112;45.892;-123.962;2023-04-21T10:05:24;102680.98;;;8.38;89.06
51067;BME280;37112;45.892;-123.962;2023-04-21T10:07:59;102680.30;;;8.38;89.14
51067;BME280;37112;45.892;-123.962;2023-04-21T10:10:28;102685.25;;;8.38;89.14
51067;BME280;37112;45.892;-123.962;2023-04-21T10:13:05;102687.21;;;8.38;89.11
51067;BME280;37112;45.892;-123.962;2023-04-21T10:15:36;102688.48;;;8.36;89.16
51067;BME280;37112;45.892;-123.962;2023-04-21T10:18:21;102687.44;;;8.36;89.07
51067;BME280;37112;45.892;-123.962;2023-04-21T10:21:00;102684.80;;;8.36;89.18
51067;BME280;37112;45.892;-123.962;2023-04-21T10:23:40;102687.98;;;8.36;89.05
51067;BME280;37112;45.892;-123.962;2023-04-21T10:26:18;102683.95;;;8.34;88.92
51067;BME280;37112;45.892;-123.962;2023-04-21T10:28:55;102677.58;;;8.33;88.91
51067;BME280;37112;45.892;-123.962;2023-04-21T10:31:34;102678.48;;;8.32;88.79
51067;BME280;37112;45.892;-123.962;2023-04-21T10:34:33;102676.89;;;8.32;88.85
51067;BME280;37112;45.892;-123.962;2023-04-21T10:37:19;102677.41;;;8.32;88.80
51067;BME280;37112;45.892;-123.962;2023-04-21T10:39:57;102676.70;;;8.32;88.95
51067;BME280;37112;45.892;-123.962;2023-04-21T10:42:36;102678.80;;;8.34;89.08
51067;BME280;37112;45.892;-123.962;2023-04-21T10:45:14;102678.79;;;8.34;88.98
51067;BME280;37112;45.892;-123.962;2023-04-21T10:47:52;102674.69;;;8.36;89.20
51067;BME280;37112;45.892;-123.962;2023-04-21T10:50:30;102674.64;;;8.38;89.21
51067;BME280;37112;45.892;-123.962;2023-04-21T10:53:20;102681.54;;;8.38;89.16
51067;BME280;37112;45.892;-123.962;2023-04-21T10:55:59;102692.70;;;8.37;88.98
51067;BME280;37112;45.892;-123.962;2023-04-21T10:58:35;102705.10;;;8.37;89.06
51067;BME280;37112;45.892;-123.962;2023-04-21T11:01:10;102706.67;;;8.38;89.01
51067;BME280;37112;45.892;-123.962;2023-04-21T11:03:46;102706.13;;;8.39;89.12
51067;BME280;37112;45.892;-123.962;2023-04-21T11:06:20;102710.52;;;8.40;89.11
51067;BME280;37112;45.892;-123.962;2023-04-21T11:08:59;102709.64;;;8.41;89.14
51067;BME280;37112;45.892;-123.962;2023-04-21T11:11:35;102713.35;;;8.41;89.06
51067;BME280;37112;45.892;-123.962;2023-04-21T11:14:10;102715.27;;;8.42;89.12
51067;BME280;37112;45.892;-123.962;2023-04-21T11:16:50;102715.95;;;8.43;89.17
51067;BME280;37112;45.892;-123.962;2023-04-21T11:19:26;102716.30;;;8.43;89.14
51067;BME280;37112;45.892;-123.962;2023-04-21T11:21:54;102722.45;;;8.44;89.22
51067;BME280;37112;45.892;-123.962;2023-04-21T11:24:22;102722.05;;;8.46;89.27
51067;BME280;37112;45.892;-123.962;2023-04-21T11:26:57;102715.83;;;8.47;89.19
51067;BME280;37112;45.892;-123.962;2023-04-21T11:29:13;102716.38;;;8.46;89.15
51067;BME280;37112;45.892;-123.962;2023-04-21T11:31:49;102720.06;;;8.47;89.18
51067;BME280;37112;45.892;-123.962;2023-04-21T11:34:25;102712.80;;;8.48;89.16
51067;BME280;37112;45.892;-123.962;2023-04-21T11:37:01;102704.13;;;8.48;89.01
51067;BME280;37112;45.892;-123.962;2023-04-21T11:39:28;102702.18;;;8.48;89.05
51067;BME280;37112;45.892;-123.962;2023-04-21T11:42:02;102703.81;;;8.46;88.75
51067;BME280;37112;45.892;-123.962;2023-04-21T11:44:39;102710.02;;;8.46;88.69
51067;BME280;37112;45.892;-123.962;2023-04-21T11:47:18;102716.42;;;8.44;88.73
51067;BME280;37112;45.892;-123.962;2023-04-21T11:49:46;102719.06;;;8.45;88.80
51067;BME280;37112;45.892;-123.962;2023-04-21T11:52:10;102723.61;;;8.47;88.95
51067;BME280;37112;45.892;-123.962;2023-04-21T11:54:45;102724.30;;;8.49;89.16
51067;BME280;37112;45.892;-123.962;2023-04-21T11:57:21;102712.75;;;8.50;89.16
51067;BME280;37112;45.892;-123.962;2023-04-21T11:59:46;102719.63;;;8.51;89.26
51067;BME280;37112;45.892;-123.962;2023-04-21T12:02:27;102724.02;;;8.52;89.26
51067;BME280;37112;45.892;-123.962;2023-04-21T12:05:06;102723.87;;;8.51;89.21
51067;BME280;37112;45.892;-123.962;2023-04-21T12:07:44;102725.12;;;8.51;89.22
51067;BME280;37112;45.892;-123.962;2023-04-21T12:10:20;102729.39;;;8.50;89.17
51067;BME280;37112;45.892;-123.962;2023-04-21T12:12:54;102729.77;;;8.49;89.14
51067;BME280;37112;45.892;-123.962;2023-04-21T12:15:19;102733.17;;;8.47;89.05
51067;BME280;37112;45.892;-123.962;2023-04-21T12:17:56;102731.44;;;8.46;88.99
51067;BME280;37112;45.892;-123.962;2023-04-21T12:20:31;102732.55;;;8.44;89.04
51067;BME280;37112;45.892;-123.962;2023-04-21T12:23:06;102727.61;;;8.44;89.06
51067;BME280;37112;45.892;-123.962;2023-04-21T12:25:32;102731.72;;;8.42;89.06
51067;BME280;37112;45.892;-123.962;2023-04-21T12:28:20;102723.63;;;8.40;89.02
51067;BME280;37112;45.892;-123.962;2023-04-21T12:30:55;102727.91;;;8.38;88.90
51067;BME280;37112;45.892;-123.962;2023-04-21T12:33:30;102728.99;;;8.38;88.92
51067;BME280;37112;45.892;-123.962;2023-04-21T12:36:06;102725.48;;;8.37;88.84
51067;BME280;37112;45.892;-123.962;2023-04-21T12:38:43;102726.40;;;8.36;88.89
51067;BME280;37112;45.892;-123.962;2023-04-21T12:41:17;102718.81;;;8.34;88.80
51067;BME280;37112;45.892;-123.962;2023-04-21T12:43:53;102722.00;;;8.33;88.87
51067;BME280;37112;45.892;-123.962;2023-04-21T12:46:29;102722.55;;;8.33;88.93
51067;BME280;37112;45.892;-123.962;2023-04-21T12:49:04;102727.67;;;8.34;88.96
51067;BME280;37112;45.892;-123.962;2023-04-21T12:51:40;102727.30;;;8.34;89.07
51067;BME280;37112;45.892;-123.962;2023-04-21T12:54:34;102737.56;;;8.35;89.05
51067;BME280;37112;45.892;-123.962;2023-04-21T12:57:09;102739.70;;;8.35;89.02
51067;BME280;37112;45.892;-123.962;2023-04-21T12:59:43;102742.69;;;8.36;89.09
51067;BME280;37112;45.892;-123.962;2023-04-21T13:02:18;102741.73;;;8.38;89.21
51067;BME280;37112;45.892;-123.962;2023-04-21T13:04:53;102744.94;;;8.37;88.96
51067;BME280;37112;45.892;-123.962;2023-04-21T13:07:29;102753.27;;;8.37;88.97
51067;BME280;37112;45.892;-123.962;2023-04-21T13:10:05;102756.83;;;8.36;88.96
51067;BME280;37112;45.892;-123.962;2023-04-21T13:12:40;102752.26;;;8.35;88.86
51067;BME280;37112;45.892;-123.962;2023-04-21T13:15:16;102756.53;;;8.33;88.70
51067;BME280;37112;45.892;-123.962;2023-04-21T13:17:51;102756.04;;;8.31;88.66
51067;BME280;37112;45.892;-123.962;2023-04-21T13:20:26;102758.55;;;8.30;88.64
51067;BME280;37112;45.892;-123.962;2023-04-21T13:23:02;102751.70;;;8.28;88.50